AFL785 VOBL-OPKC
Flight info
| Callsign | AFL785 |
|---|---|
| Flight time | 2h 16m |
| Altitude | 38000 |
| Route | OPAMO7B OPAMO W56 AGELA G208 AVKOR W56 BBB M638 EXOLU N519 SAPNA SAPNA1 |
| Aircraft | B77W/H-SDE1E2E3FGHIJ2J3J4J5M1RWXY/LB1D1 |
Departure
| Time | 2026-05-06 06:59 |
|---|---|
| Airport | Kempegowda International Airport Bengaluru (VOBL) |
Arrival
| Time | 2026-05-06 09:15 |
|---|---|
| Airport | Jinnah International Airport (OPKC) |
| Time | Latitude | Longitude | Altitude | Speed | Heading |
|---|---|---|---|---|---|
| 2026-05-06 06:37 | 13.19950 | 77.72029 | 3016 ft | 0 kts | 271° |
| 2026-05-06 06:47 | 13.19950 | 77.72031 | 3016 ft | 1 kts | 271° |
| 2026-05-06 06:48 | 13.19949 | 77.72048 | 3016 ft | 3 kts | 279° |
| 2026-05-06 06:48 | 13.19944 | 77.72068 | 3020 ft | 3 kts | 292° |
| 2026-05-06 06:48 | 13.19936 | 77.72086 | 3022 ft | 3 kts | 306° |
| 2026-05-06 06:48 | 13.19923 | 77.72101 | 3022 ft | 3 kts | 326° |
| 2026-05-06 06:49 | 13.19907 | 77.72109 | 3020 ft | 2 kts | 357° |
| 2026-05-06 06:49 | 13.19904 | 77.72109 | 3019 ft | 0 kts | 1° |
| 2026-05-06 06:53 | 13.19916 | 77.72109 | 3016 ft | 10 kts | 0° |
| 2026-05-06 06:53 | 13.20008 | 77.72108 | 3016 ft | 14 kts | 360° |
| 2026-05-06 06:53 | 13.20103 | 77.72108 | 3016 ft | 14 kts | 0° |
| 2026-05-06 06:54 | 13.20199 | 77.72111 | 3016 ft | 14 kts | 1° |
| 2026-05-06 06:54 | 13.20294 | 77.72114 | 3016 ft | 14 kts | 0° |
| 2026-05-06 06:54 | 13.20390 | 77.72115 | 3016 ft | 14 kts | 358° |
| 2026-05-06 06:54 | 13.20484 | 77.72121 | 3016 ft | 14 kts | 21° |
| 2026-05-06 06:55 | 13.20518 | 77.72198 | 3016 ft | 10 kts | 95° |
| 2026-05-06 06:55 | 13.20526 | 77.72264 | 3016 ft | 8 kts | 59° |
| 2026-05-06 06:55 | 13.20552 | 77.72281 | 3016 ft | 0 kts | 13° |
| 2026-05-06 06:56 | 13.20557 | 77.72282 | 3016 ft | 5 kts | 11° |
| 2026-05-06 06:56 | 13.20624 | 77.72283 | 3016 ft | 10 kts | 354° |
| 2026-05-06 06:56 | 13.20680 | 77.72256 | 3016 ft | 7 kts | 306° |
| 2026-05-06 06:56 | 13.20689 | 77.72205 | 3016 ft | 7 kts | 271° |
| 2026-05-06 06:57 | 13.20689 | 77.72203 | 3016 ft | 0 kts | 270° |
| 2026-05-06 06:58 | 13.20691 | 77.72043 | 3016 ft | 57 kts | 270° |
| 2026-05-06 06:58 | 13.20694 | 77.71379 | 3016 ft | 127 kts | 271° |
| 2026-05-06 06:58 | 13.20713 | 77.70272 | 3018 ft | 181 kts | 270° |
| 2026-05-06 06:58 | 13.20702 | 77.68954 | 3438 ft | 189 kts | 270° |
| 2026-05-06 06:59 | 13.20933 | 77.67622 | 3907 ft | 195 kts | 302° |
| 2026-05-06 06:59 | 13.21887 | 77.66695 | 4548 ft | 185 kts | 324° |
| 2026-05-06 06:59 | 13.22681 | 77.65681 | 5146 ft | 188 kts | 298° |
| 2026-05-06 06:59 | 13.23277 | 77.64410 | 5467 ft | 210 kts | 299° |
| 2026-05-06 07:00 | 13.23993 | 77.63028 | 5777 ft | 231 kts | 301° |
| 2026-05-06 07:00 | 13.24832 | 77.61487 | 5894 ft | 261 kts | 301° |
| 2026-05-06 07:00 | 13.25770 | 77.59814 | 6466 ft | 274 kts | 302° |
| 2026-05-06 07:00 | 13.26750 | 77.58106 | 7249 ft | 280 kts | 302° |
| 2026-05-06 07:01 | 13.27742 | 77.56392 | 8003 ft | 286 kts | 302° |
| 2026-05-06 07:01 | 13.28785 | 77.54627 | 8752 ft | 289 kts | 307° |
| 2026-05-06 07:01 | 13.30245 | 77.53209 | 9333 ft | 293 kts | 334° |
| 2026-05-06 07:01 | 13.32178 | 77.52617 | 10091 ft | 291 kts | 0° |
| 2026-05-06 07:02 | 13.34184 | 77.52909 | 10742 ft | 297 kts | 20° |
| 2026-05-06 07:02 | 13.36106 | 77.53851 | 10977 ft | 320 kts | 31° |
| 2026-05-06 07:02 | 13.38128 | 77.55078 | 10978 ft | 353 kts | 32° |
| 2026-05-06 07:02 | 13.40270 | 77.56415 | 10956 ft | 362 kts | 32° |
| 2026-05-06 07:03 | 13.42426 | 77.57751 | 10952 ft | 364 kts | 32° |
| 2026-05-06 07:03 | 13.44579 | 77.59064 | 10955 ft | 365 kts | 31° |
| 2026-05-06 07:03 | 13.46774 | 77.60389 | 10954 ft | 366 kts | 31° |
| 2026-05-06 07:03 | 13.48975 | 77.61711 | 10944 ft | 365 kts | 30° |
| 2026-05-06 07:04 | 13.51304 | 77.62653 | 10939 ft | 364 kts | 11° |
| 2026-05-06 07:04 | 13.53846 | 77.62674 | 11078 ft | 371 kts | 352° |
| 2026-05-06 07:04 | 13.56341 | 77.61905 | 11770 ft | 379 kts | 337° |
| 2026-05-06 07:04 | 13.58749 | 77.60733 | 12580 ft | 386 kts | 334° |
| 2026-05-06 07:05 | 13.61131 | 77.59495 | 13450 ft | 392 kts | 333° |
| 2026-05-06 07:05 | 13.63573 | 77.58206 | 14271 ft | 398 kts | 333° |
| 2026-05-06 07:05 | 13.66052 | 77.56900 | 15091 ft | 401 kts | 333° |
| 2026-05-06 07:05 | 13.68552 | 77.55594 | 15913 ft | 406 kts | 332° |
| 2026-05-06 07:06 | 13.71094 | 77.54277 | 16666 ft | 412 kts | 332° |
| 2026-05-06 07:06 | 13.73665 | 77.52953 | 17488 ft | 415 kts | 332° |
| 2026-05-06 07:06 | 13.76257 | 77.51626 | 18266 ft | 419 kts | 332° |
| 2026-05-06 07:06 | 13.78881 | 77.50284 | 18906 ft | 423 kts | 332° |
| 2026-05-06 07:07 | 13.81535 | 77.48930 | 19551 ft | 428 kts | 332° |
| 2026-05-06 07:07 | 13.84209 | 77.47565 | 20204 ft | 431 kts | 332° |
| 2026-05-06 07:07 | 13.86876 | 77.46205 | 20843 ft | 435 kts | 332° |
| 2026-05-06 07:07 | 13.89603 | 77.44813 | 21467 ft | 439 kts | 332° |
| 2026-05-06 07:08 | 13.92347 | 77.43412 | 22127 ft | 442 kts | 332° |
| 2026-05-06 07:08 | 13.95118 | 77.41997 | 22738 ft | 446 kts | 332° |
| 2026-05-06 07:08 | 13.97912 | 77.40569 | 23303 ft | 451 kts | 332° |
| 2026-05-06 07:08 | 14.00733 | 77.39127 | 23800 ft | 455 kts | 332° |
| 2026-05-06 07:09 | 14.03577 | 77.37673 | 24275 ft | 458 kts | 332° |
| 2026-05-06 07:09 | 14.06444 | 77.36207 | 24774 ft | 461 kts | 332° |
| 2026-05-06 07:09 | 14.09324 | 77.34734 | 25254 ft | 464 kts | 332° |
| 2026-05-06 07:09 | 14.12181 | 77.33272 | 25711 ft | 468 kts | 332° |
| 2026-05-06 07:10 | 14.15102 | 77.31777 | 26167 ft | 471 kts | 332° |
| 2026-05-06 07:10 | 14.18050 | 77.30268 | 26608 ft | 474 kts | 332° |
| 2026-05-06 07:10 | 14.21018 | 77.28748 | 27042 ft | 478 kts | 332° |
| 2026-05-06 07:10 | 14.24002 | 77.27219 | 27495 ft | 481 kts | 332° |
| 2026-05-06 07:11 | 14.27005 | 77.25681 | 27963 ft | 483 kts | 332° |
| 2026-05-06 07:11 | 14.30021 | 77.24135 | 28389 ft | 486 kts | 332° |
| 2026-05-06 07:11 | 14.33021 | 77.22597 | 28786 ft | 489 kts | 332° |
| 2026-05-06 07:11 | 14.36072 | 77.21032 | 29213 ft | 491 kts | 332° |
| 2026-05-06 07:12 | 14.39144 | 77.19456 | 29607 ft | 494 kts | 332° |
| 2026-05-06 07:12 | 14.42232 | 77.17871 | 29954 ft | 497 kts | 333° |
| 2026-05-06 07:12 | 14.45341 | 77.16274 | 30233 ft | 500 kts | 332° |
| 2026-05-06 07:12 | 14.48455 | 77.14675 | 30610 ft | 500 kts | 332° |
| 2026-05-06 07:13 | 14.51563 | 77.13079 | 31096 ft | 498 kts | 332° |
| 2026-05-06 07:13 | 14.54657 | 77.11489 | 31579 ft | 496 kts | 332° |
| 2026-05-06 07:13 | 14.57738 | 77.09905 | 32024 ft | 495 kts | 332° |
| 2026-05-06 07:13 | 14.60799 | 77.08396 | 32462 ft | 494 kts | 336° |
| 2026-05-06 07:14 | 14.63992 | 77.07105 | 32935 ft | 493 kts | 339° |
| 2026-05-06 07:14 | 14.67233 | 77.05954 | 33399 ft | 492 kts | 340° |
| 2026-05-06 07:14 | 14.70484 | 77.04847 | 33850 ft | 491 kts | 340° |
| 2026-05-06 07:14 | 14.73717 | 77.03735 | 34241 ft | 490 kts | 340° |
| 2026-05-06 07:15 | 14.76941 | 77.02596 | 34610 ft | 489 kts | 339° |
| 2026-05-06 07:15 | 14.80151 | 77.01435 | 34960 ft | 489 kts | 339° |
| 2026-05-06 07:15 | 14.83351 | 77.00260 | 35315 ft | 488 kts | 339° |
| 2026-05-06 07:15 | 14.86441 | 76.99117 | 35671 ft | 487 kts | 339° |
| 2026-05-06 07:16 | 14.89633 | 76.97934 | 35907 ft | 489 kts | 339° |
| 2026-05-06 07:16 | 14.96070 | 76.95552 | 35867 ft | 491 kts | 339° |
| 2026-05-06 07:17 | 15.02460 | 76.93192 | 35863 ft | 486 kts | 339° |
| 2026-05-06 07:17 | 15.08863 | 76.90826 | 36163 ft | 491 kts | 339° |
| 2026-05-06 07:17 | 15.12028 | 76.89635 | 36512 ft | 489 kts | 336° |
| 2026-05-06 07:18 | 15.15080 | 76.88121 | 36873 ft | 486 kts | 329° |
| 2026-05-06 07:18 | 15.17932 | 76.86255 | 37262 ft | 484 kts | 323° |
| 2026-05-06 07:18 | 15.20567 | 76.84106 | 37553 ft | 482 kts | 316° |
| 2026-05-06 07:18 | 15.23002 | 76.81717 | 37807 ft | 483 kts | 314° |
| 2026-05-06 07:19 | 15.25408 | 76.79274 | 37838 ft | 486 kts | 314° |
| 2026-05-06 07:19 | 15.30210 | 76.74372 | 37883 ft | 483 kts | 314° |
| 2026-05-06 07:20 | 15.34967 | 76.69577 | 37880 ft | 478 kts | 314° |
| 2026-05-06 07:20 | 15.39743 | 76.64801 | 37880 ft | 476 kts | 315° |
| 2026-05-06 07:21 | 15.44510 | 76.60040 | 37876 ft | 476 kts | 315° |
| 2026-05-06 07:21 | 15.49277 | 76.55270 | 37855 ft | 477 kts | 315° |
| 2026-05-06 07:22 | 15.54020 | 76.50518 | 37855 ft | 478 kts | 315° |
| 2026-05-06 07:22 | 15.58812 | 76.45716 | 37863 ft | 479 kts | 315° |
| 2026-05-06 07:23 | 15.63610 | 76.40905 | 37859 ft | 480 kts | 315° |
| 2026-05-06 07:23 | 15.68421 | 76.36099 | 37865 ft | 480 kts | 315° |
| 2026-05-06 07:24 | 15.73283 | 76.31408 | 37867 ft | 480 kts | 316° |
| 2026-05-06 07:24 | 15.78203 | 76.26725 | 37875 ft | 480 kts | 316° |
| 2026-05-06 07:25 | 15.83093 | 76.22019 | 37877 ft | 479 kts | 316° |
| 2026-05-06 07:25 | 15.87963 | 76.17297 | 37877 ft | 479 kts | 316° |
| 2026-05-06 07:26 | 15.92832 | 76.12580 | 37893 ft | 478 kts | 316° |
| 2026-05-06 07:26 | 15.97660 | 76.07907 | 37886 ft | 477 kts | 316° |
| 2026-05-06 07:27 | 16.02507 | 76.03213 | 37889 ft | 476 kts | 315° |
| 2026-05-06 07:27 | 16.07293 | 75.98576 | 37891 ft | 475 kts | 315° |
| 2026-05-06 07:28 | 16.12126 | 75.93895 | 37888 ft | 475 kts | 315° |
| 2026-05-06 07:28 | 16.19324 | 75.86902 | 37902 ft | 474 kts | 315° |
| 2026-05-06 07:29 | 16.24140 | 75.82225 | 37911 ft | 473 kts | 315° |
| 2026-05-06 07:29 | 16.28947 | 75.77558 | 37901 ft | 472 kts | 315° |
| 2026-05-06 07:30 | 16.33702 | 75.72929 | 37909 ft | 470 kts | 315° |
| 2026-05-06 07:30 | 16.38475 | 75.68284 | 37906 ft | 469 kts | 315° |
| 2026-05-06 07:31 | 16.43240 | 75.63641 | 37905 ft | 469 kts | 315° |
| 2026-05-06 07:31 | 16.48011 | 75.58990 | 37912 ft | 470 kts | 315° |
| 2026-05-06 07:32 | 16.52752 | 75.54364 | 37918 ft | 470 kts | 315° |
| 2026-05-06 07:32 | 16.57529 | 75.49701 | 37921 ft | 471 kts | 315° |
| 2026-05-06 07:33 | 16.62296 | 75.45015 | 37913 ft | 471 kts | 314° |
| 2026-05-06 07:33 | 16.66943 | 75.40200 | 37922 ft | 471 kts | 314° |
| 2026-05-06 07:34 | 16.71529 | 75.35380 | 37926 ft | 471 kts | 313° |
| 2026-05-06 07:34 | 16.76147 | 75.30538 | 37917 ft | 471 kts | 314° |
| 2026-05-06 07:35 | 16.80782 | 75.25707 | 37924 ft | 471 kts | 314° |
| 2026-05-06 07:35 | 16.85418 | 75.20872 | 37926 ft | 471 kts | 314° |
| 2026-05-06 07:36 | 16.90020 | 75.16071 | 37930 ft | 471 kts | 314° |
| 2026-05-06 07:36 | 16.94656 | 75.11234 | 37929 ft | 471 kts | 314° |
| 2026-05-06 07:37 | 16.99277 | 75.06400 | 37928 ft | 470 kts | 314° |
| 2026-05-06 07:37 | 17.03893 | 75.01570 | 37921 ft | 470 kts | 314° |
| 2026-05-06 07:38 | 17.08435 | 74.96817 | 37927 ft | 470 kts | 314° |
| 2026-05-06 07:38 | 17.13053 | 74.91982 | 37928 ft | 470 kts | 314° |
| 2026-05-06 07:39 | 17.17672 | 74.87141 | 37934 ft | 470 kts | 314° |
| 2026-05-06 07:39 | 17.22279 | 74.82307 | 37926 ft | 469 kts | 314° |
| 2026-05-06 07:40 | 17.26851 | 74.77507 | 37923 ft | 469 kts | 314° |
| 2026-05-06 07:40 | 17.31451 | 74.72677 | 37930 ft | 468 kts | 314° |
| 2026-05-06 07:41 | 17.36037 | 74.67854 | 37928 ft | 467 kts | 314° |
| 2026-05-06 07:41 | 17.40593 | 74.63066 | 37925 ft | 467 kts | 314° |
| 2026-05-06 07:42 | 17.45173 | 74.58240 | 37925 ft | 467 kts | 314° |
| 2026-05-06 07:42 | 17.49752 | 74.53415 | 37943 ft | 467 kts | 314° |
| 2026-05-06 07:43 | 17.54335 | 74.48584 | 37925 ft | 467 kts | 314° |
| 2026-05-06 07:43 | 17.58910 | 74.43754 | 37923 ft | 467 kts | 314° |
| 2026-05-06 07:44 | 17.63453 | 74.38957 | 37927 ft | 467 kts | 314° |
| 2026-05-06 07:44 | 17.68026 | 74.34125 | 37920 ft | 467 kts | 314° |
| 2026-05-06 07:45 | 17.72594 | 74.29289 | 37921 ft | 467 kts | 314° |
| 2026-05-06 07:45 | 17.77162 | 74.24452 | 37926 ft | 467 kts | 314° |
| 2026-05-06 07:46 | 17.81708 | 74.19637 | 37919 ft | 467 kts | 314° |
| 2026-05-06 07:46 | 17.86280 | 74.14790 | 37924 ft | 467 kts | 314° |
| 2026-05-06 07:47 | 17.90855 | 74.09934 | 37906 ft | 468 kts | 314° |
| 2026-05-06 07:47 | 17.95430 | 74.05079 | 37919 ft | 468 kts | 314° |
| 2026-05-06 07:48 | 17.99970 | 74.00253 | 37917 ft | 468 kts | 314° |
| 2026-05-06 07:48 | 18.04498 | 73.95445 | 37917 ft | 468 kts | 314° |
| 2026-05-06 07:49 | 18.09142 | 73.90651 | 37902 ft | 468 kts | 315° |
| 2026-05-06 07:49 | 18.13807 | 73.85881 | 37915 ft | 468 kts | 315° |
| 2026-05-06 07:50 | 18.18431 | 73.81131 | 37902 ft | 468 kts | 315° |
| 2026-05-06 07:50 | 18.23075 | 73.76345 | 37899 ft | 468 kts | 315° |
| 2026-05-06 07:51 | 18.27719 | 73.71547 | 37899 ft | 468 kts | 315° |
| 2026-05-06 07:51 | 18.32359 | 73.66746 | 37892 ft | 468 kts | 315° |
| 2026-05-06 07:52 | 18.36973 | 73.61977 | 37869 ft | 468 kts | 315° |
| 2026-05-06 07:52 | 18.41619 | 73.57166 | 37882 ft | 469 kts | 315° |
| 2026-05-06 07:53 | 18.46277 | 73.52343 | 37883 ft | 470 kts | 315° |
| 2026-05-06 07:53 | 18.50946 | 73.47500 | 37868 ft | 471 kts | 315° |
| 2026-05-06 07:54 | 18.55595 | 73.42679 | 37860 ft | 472 kts | 315° |
| 2026-05-06 07:54 | 18.60276 | 73.37820 | 37865 ft | 472 kts | 315° |
| 2026-05-06 07:55 | 18.64957 | 73.32954 | 37857 ft | 472 kts | 315° |
| 2026-05-06 07:55 | 18.69629 | 73.28097 | 37857 ft | 471 kts | 314° |
| 2026-05-06 07:56 | 18.74253 | 73.23282 | 37853 ft | 469 kts | 314° |
| 2026-05-06 07:56 | 18.78891 | 73.18455 | 37840 ft | 468 kts | 314° |
| 2026-05-06 07:57 | 18.83512 | 73.13637 | 37843 ft | 467 kts | 314° |
| 2026-05-06 07:57 | 18.88126 | 73.08818 | 37839 ft | 466 kts | 314° |
| 2026-05-06 07:58 | 18.92704 | 73.04035 | 37839 ft | 466 kts | 314° |
| 2026-05-06 07:58 | 18.97265 | 72.99268 | 37840 ft | 466 kts | 314° |
| 2026-05-06 07:59 | 19.01872 | 72.94450 | 37817 ft | 467 kts | 314° |
| 2026-05-06 07:59 | 19.06492 | 72.89611 | 37837 ft | 468 kts | 314° |
| 2026-05-06 08:00 | 19.11054 | 72.84737 | 37829 ft | 470 kts | 312° |
| 2026-05-06 08:00 | 19.15484 | 72.79645 | 37832 ft | 471 kts | 311° |
| 2026-05-06 08:01 | 19.19899 | 72.74502 | 37836 ft | 472 kts | 311° |
| 2026-05-06 08:01 | 19.24336 | 72.69373 | 37823 ft | 473 kts | 312° |
| 2026-05-06 08:02 | 19.28792 | 72.64253 | 37842 ft | 473 kts | 312° |
| 2026-05-06 08:02 | 19.33217 | 72.59176 | 37832 ft | 472 kts | 311° |
| 2026-05-06 08:03 | 19.37657 | 72.54071 | 37847 ft | 470 kts | 311° |
| 2026-05-06 08:03 | 19.42083 | 72.48974 | 37854 ft | 469 kts | 311° |
| 2026-05-06 08:04 | 19.46496 | 72.43891 | 37852 ft | 468 kts | 311° |
| 2026-05-06 08:04 | 19.50870 | 72.38847 | 37859 ft | 468 kts | 311° |
| 2026-05-06 08:05 | 19.55270 | 72.33774 | 37844 ft | 467 kts | 311° |
| 2026-05-06 08:05 | 19.59665 | 72.28700 | 37866 ft | 467 kts | 311° |
| 2026-05-06 08:06 | 19.64024 | 72.23654 | 37846 ft | 467 kts | 311° |
| 2026-05-06 08:06 | 19.68406 | 72.18582 | 37849 ft | 466 kts | 311° |
| 2026-05-06 08:07 | 19.72792 | 72.13506 | 37862 ft | 466 kts | 311° |
| 2026-05-06 08:07 | 19.77175 | 72.08424 | 37863 ft | 467 kts | 311° |
| 2026-05-06 08:08 | 19.81529 | 72.03372 | 37855 ft | 467 kts | 311° |
| 2026-05-06 08:08 | 19.85865 | 71.98338 | 37854 ft | 467 kts | 311° |
| 2026-05-06 08:09 | 19.90248 | 71.93248 | 37851 ft | 467 kts | 311° |
| 2026-05-06 08:09 | 19.94620 | 71.88155 | 37848 ft | 466 kts | 311° |
| 2026-05-06 08:10 | 19.98956 | 71.83110 | 37850 ft | 465 kts | 311° |
| 2026-05-06 08:10 | 20.03316 | 71.78028 | 37872 ft | 465 kts | 311° |
| 2026-05-06 08:11 | 20.07674 | 71.72945 | 37863 ft | 465 kts | 311° |
| 2026-05-06 08:11 | 20.12026 | 71.67865 | 37853 ft | 465 kts | 311° |
| 2026-05-06 08:12 | 20.16376 | 71.62779 | 37851 ft | 464 kts | 311° |
| 2026-05-06 08:12 | 20.20692 | 71.57733 | 37840 ft | 464 kts | 311° |
| 2026-05-06 08:13 | 20.25031 | 71.52660 | 37841 ft | 463 kts | 311° |
| 2026-05-06 08:13 | 20.29365 | 71.47591 | 37844 ft | 462 kts | 311° |
| 2026-05-06 08:14 | 20.33691 | 71.42521 | 37842 ft | 462 kts | 311° |
| 2026-05-06 08:14 | 20.37983 | 71.37486 | 37833 ft | 462 kts | 311° |
| 2026-05-06 08:15 | 20.42307 | 71.32412 | 37838 ft | 462 kts | 311° |
| 2026-05-06 08:15 | 20.46627 | 71.27338 | 37840 ft | 462 kts | 310° |
| 2026-05-06 08:16 | 20.50943 | 71.22264 | 37825 ft | 462 kts | 310° |
| 2026-05-06 08:16 | 20.55229 | 71.17220 | 37827 ft | 462 kts | 310° |
| 2026-05-06 08:17 | 20.59539 | 71.12143 | 37826 ft | 461 kts | 310° |
| 2026-05-06 08:17 | 20.63848 | 71.07063 | 37829 ft | 461 kts | 310° |
| 2026-05-06 08:18 | 20.68154 | 71.01982 | 37828 ft | 461 kts | 310° |
| 2026-05-06 08:18 | 20.72383 | 70.96987 | 37841 ft | 461 kts | 310° |
| 2026-05-06 08:19 | 20.76683 | 70.91904 | 37829 ft | 461 kts | 310° |
| 2026-05-06 08:19 | 20.80981 | 70.86818 | 37821 ft | 460 kts | 310° |
| 2026-05-06 08:20 | 20.85269 | 70.81739 | 37826 ft | 460 kts | 310° |
| 2026-05-06 08:20 | 20.89525 | 70.76694 | 37824 ft | 460 kts | 310° |
| 2026-05-06 08:21 | 20.93806 | 70.71614 | 37835 ft | 460 kts | 310° |
| 2026-05-06 08:21 | 20.98091 | 70.66526 | 37832 ft | 460 kts | 310° |
| 2026-05-06 08:22 | 21.02369 | 70.61440 | 37832 ft | 460 kts | 310° |
| 2026-05-06 08:22 | 21.06622 | 70.56379 | 37846 ft | 460 kts | 310° |
| 2026-05-06 08:23 | 21.10905 | 70.51278 | 37832 ft | 461 kts | 310° |
| 2026-05-06 08:23 | 21.15191 | 70.46168 | 37847 ft | 461 kts | 310° |
| 2026-05-06 08:24 | 21.19474 | 70.41058 | 37848 ft | 461 kts | 310° |
| 2026-05-06 08:24 | 21.23760 | 70.35938 | 37849 ft | 462 kts | 310° |
| 2026-05-06 08:25 | 21.27323 | 70.31679 | 37874 ft | 462 kts | 310° |
| 2026-05-06 08:25 | 21.31377 | 70.26716 | 37858 ft | 460 kts | 306° |
| 2026-05-06 08:26 | 21.35349 | 70.20191 | 37860 ft | 456 kts | 299° |
| 2026-05-06 08:26 | 21.38576 | 70.14331 | 37849 ft | 456 kts | 299° |
| 2026-05-06 08:27 | 21.41815 | 70.08489 | 37855 ft | 455 kts | 300° |
| 2026-05-06 08:27 | 21.45046 | 70.02694 | 37858 ft | 456 kts | 300° |
| 2026-05-06 08:28 | 21.48271 | 69.96916 | 37851 ft | 456 kts | 300° |
| 2026-05-06 08:28 | 21.51528 | 69.91072 | 37852 ft | 456 kts | 300° |
| 2026-05-06 08:29 | 21.54784 | 69.85222 | 37856 ft | 456 kts | 300° |
| 2026-05-06 08:29 | 21.58033 | 69.79378 | 37853 ft | 455 kts | 300° |
| 2026-05-06 08:30 | 21.61251 | 69.73583 | 37858 ft | 454 kts | 300° |
| 2026-05-06 08:30 | 21.64619 | 69.67853 | 37857 ft | 454 kts | 306° |
| 2026-05-06 08:31 | 21.68769 | 69.62738 | 37857 ft | 455 kts | 314° |
| 2026-05-06 08:31 | 21.73460 | 69.58160 | 37861 ft | 456 kts | 316° |
| 2026-05-06 08:32 | 21.78161 | 69.53653 | 37851 ft | 456 kts | 316° |
| 2026-05-06 08:32 | 21.82880 | 69.49095 | 37850 ft | 456 kts | 316° |
| 2026-05-06 08:33 | 21.87579 | 69.44522 | 37845 ft | 455 kts | 315° |
| 2026-05-06 08:33 | 21.92274 | 69.39940 | 37847 ft | 455 kts | 315° |
| 2026-05-06 08:34 | 21.99275 | 69.33098 | 37853 ft | 455 kts | 315° |
| 2026-05-06 08:35 | 22.03955 | 69.28520 | 37854 ft | 455 kts | 315° |
| 2026-05-06 08:35 | 22.08553 | 69.24029 | 37867 ft | 455 kts | 315° |
| 2026-05-06 08:36 | 22.13230 | 69.19443 | 37855 ft | 454 kts | 315° |
| 2026-05-06 08:36 | 22.17897 | 69.14859 | 37856 ft | 454 kts | 315° |
| 2026-05-06 08:37 | 22.22535 | 69.10305 | 37864 ft | 453 kts | 315° |
| 2026-05-06 08:37 | 22.27197 | 69.05725 | 37863 ft | 453 kts | 315° |
| 2026-05-06 08:38 | 22.31858 | 69.01140 | 37865 ft | 453 kts | 315° |
| 2026-05-06 08:38 | 22.36468 | 68.96602 | 37876 ft | 453 kts | 315° |
| 2026-05-06 08:39 | 22.41088 | 68.92049 | 37866 ft | 452 kts | 315° |
| 2026-05-06 08:39 | 22.45737 | 68.87464 | 37859 ft | 452 kts | 315° |
| 2026-05-06 08:40 | 22.50375 | 68.82885 | 37863 ft | 452 kts | 315° |
| 2026-05-06 08:40 | 22.55017 | 68.78298 | 37865 ft | 452 kts | 315° |
| 2026-05-06 08:41 | 22.59628 | 68.73736 | 37864 ft | 452 kts | 315° |
| 2026-05-06 08:41 | 22.64273 | 68.69138 | 37871 ft | 453 kts | 315° |
| 2026-05-06 08:42 | 22.68917 | 68.64535 | 37864 ft | 452 kts | 315° |
| 2026-05-06 08:42 | 22.73556 | 68.59933 | 37862 ft | 452 kts | 315° |
| 2026-05-06 08:43 | 22.78159 | 68.55362 | 37863 ft | 452 kts | 315° |
| 2026-05-06 08:43 | 22.82790 | 68.50759 | 37843 ft | 452 kts | 315° |
| 2026-05-06 08:44 | 22.87419 | 68.46153 | 37874 ft | 451 kts | 315° |
| 2026-05-06 08:44 | 22.92044 | 68.41546 | 37856 ft | 451 kts | 315° |
| 2026-05-06 08:45 | 22.96636 | 68.36969 | 37851 ft | 451 kts | 315° |
| 2026-05-06 08:45 | 23.01251 | 68.32364 | 37846 ft | 451 kts | 315° |
| 2026-05-06 08:46 | 23.05867 | 68.27750 | 37859 ft | 451 kts | 315° |
| 2026-05-06 08:46 | 23.10469 | 68.23145 | 37848 ft | 451 kts | 315° |
| 2026-05-06 08:47 | 23.15057 | 68.18551 | 37862 ft | 450 kts | 315° |
| 2026-05-06 08:47 | 23.17361 | 68.16242 | 37680 ft | 452 kts | 315° |
| 2026-05-06 08:47 | 23.19683 | 68.13912 | 37219 ft | 453 kts | 315° |
| 2026-05-06 08:47 | 23.21986 | 68.11602 | 36723 ft | 448 kts | 315° |
| 2026-05-06 08:48 | 23.24267 | 68.09314 | 36220 ft | 444 kts | 315° |
| 2026-05-06 08:48 | 23.26523 | 68.07049 | 35736 ft | 439 kts | 315° |
| 2026-05-06 08:48 | 23.28758 | 68.04804 | 35223 ft | 436 kts | 315° |
| 2026-05-06 08:48 | 23.30979 | 68.02571 | 34701 ft | 433 kts | 315° |
| 2026-05-06 08:49 | 23.33157 | 68.00380 | 34188 ft | 431 kts | 315° |
| 2026-05-06 08:49 | 23.35310 | 67.98213 | 33628 ft | 430 kts | 315° |
| 2026-05-06 08:49 | 23.37495 | 67.96012 | 33083 ft | 426 kts | 316° |
| 2026-05-06 08:49 | 23.39659 | 67.93832 | 32586 ft | 422 kts | 316° |
| 2026-05-06 08:50 | 23.41806 | 67.91669 | 32091 ft | 418 kts | 316° |
| 2026-05-06 08:50 | 23.43930 | 67.89528 | 31601 ft | 414 kts | 316° |
| 2026-05-06 08:50 | 23.46127 | 67.87559 | 31098 ft | 409 kts | 327° |
| 2026-05-06 08:50 | 23.48743 | 67.86354 | 30642 ft | 410 kts | 342° |
| 2026-05-06 08:51 | 23.51570 | 67.85899 | 30185 ft | 412 kts | 352° |
| 2026-05-06 08:51 | 23.54437 | 67.85913 | 29680 ft | 413 kts | 0° |
| 2026-05-06 08:51 | 23.57205 | 67.86641 | 29167 ft | 418 kts | 17° |
| 2026-05-06 08:51 | 23.59830 | 67.87978 | 28740 ft | 415 kts | 19° |
| 2026-05-06 08:52 | 23.62410 | 67.89353 | 28252 ft | 411 kts | 20° |
| 2026-05-06 08:52 | 23.64969 | 67.90706 | 27801 ft | 406 kts | 19° |
| 2026-05-06 08:52 | 23.67507 | 67.92020 | 27358 ft | 402 kts | 19° |
| 2026-05-06 08:52 | 23.70033 | 67.93305 | 26916 ft | 399 kts | 19° |
| 2026-05-06 08:53 | 23.72541 | 67.94569 | 26483 ft | 395 kts | 19° |
| 2026-05-06 08:53 | 23.75028 | 67.95819 | 26049 ft | 392 kts | 19° |
| 2026-05-06 08:53 | 23.77496 | 67.97060 | 25630 ft | 389 kts | 19° |
| 2026-05-06 08:53 | 23.79921 | 67.98224 | 25195 ft | 380 kts | 12° |
| 2026-05-06 08:54 | 23.82463 | 67.98652 | 24799 ft | 364 kts | 353° |
| 2026-05-06 08:54 | 23.84934 | 67.98248 | 24385 ft | 357 kts | 341° |
| 2026-05-06 08:54 | 23.87215 | 67.97259 | 23934 ft | 349 kts | 327° |
| 2026-05-06 08:54 | 23.89230 | 67.95811 | 23551 ft | 345 kts | 324° |
| 2026-05-06 08:55 | 23.91197 | 67.94309 | 23069 ft | 345 kts | 323° |
| 2026-05-06 08:55 | 23.93150 | 67.92800 | 22630 ft | 343 kts | 323° |
| 2026-05-06 08:55 | 23.95093 | 67.91303 | 22211 ft | 341 kts | 324° |
| 2026-05-06 08:55 | 23.97028 | 67.89820 | 21796 ft | 338 kts | 324° |
| 2026-05-06 08:56 | 23.98952 | 67.88353 | 21380 ft | 336 kts | 324° |
| 2026-05-06 08:56 | 24.00839 | 67.86921 | 20985 ft | 334 kts | 324° |
| 2026-05-06 08:56 | 24.02745 | 67.85478 | 20586 ft | 333 kts | 324° |
| 2026-05-06 08:56 | 24.04644 | 67.84042 | 20186 ft | 331 kts | 325° |
| 2026-05-06 08:57 | 24.06539 | 67.82611 | 19794 ft | 330 kts | 325° |
| 2026-05-06 08:57 | 24.08425 | 67.81187 | 19402 ft | 329 kts | 325° |
| 2026-05-06 08:57 | 24.10305 | 67.79767 | 19000 ft | 328 kts | 325° |
| 2026-05-06 08:57 | 24.12185 | 67.78347 | 18590 ft | 328 kts | 326° |
| 2026-05-06 08:58 | 24.14065 | 67.76927 | 18184 ft | 328 kts | 326° |
| 2026-05-06 08:58 | 24.15943 | 67.75508 | 17737 ft | 328 kts | 326° |
| 2026-05-06 08:58 | 24.17791 | 67.74111 | 17321 ft | 326 kts | 326° |
| 2026-05-06 08:58 | 24.19656 | 67.72700 | 16905 ft | 325 kts | 326° |
| 2026-05-06 08:59 | 24.21511 | 67.71297 | 16494 ft | 323 kts | 326° |
| 2026-05-06 08:59 | 24.23358 | 67.69900 | 16105 ft | 322 kts | 326° |
| 2026-05-06 08:59 | 24.25201 | 67.68505 | 15717 ft | 321 kts | 326° |
| 2026-05-06 08:59 | 24.27031 | 67.67119 | 15329 ft | 320 kts | 326° |
| 2026-05-06 09:00 | 24.28858 | 67.65734 | 14939 ft | 319 kts | 326° |
| 2026-05-06 09:00 | 24.30681 | 67.64353 | 14545 ft | 318 kts | 326° |
| 2026-05-06 09:00 | 24.32475 | 67.62993 | 14160 ft | 318 kts | 327° |
| 2026-05-06 09:00 | 24.34291 | 67.61616 | 13766 ft | 317 kts | 327° |
| 2026-05-06 09:01 | 24.36106 | 67.60239 | 13342 ft | 317 kts | 327° |
| 2026-05-06 09:01 | 24.37915 | 67.58867 | 12928 ft | 316 kts | 327° |
| 2026-05-06 09:01 | 24.39716 | 67.57499 | 12525 ft | 314 kts | 327° |
| 2026-05-06 09:01 | 24.41504 | 67.56140 | 12125 ft | 312 kts | 327° |
| 2026-05-06 09:02 | 24.43282 | 67.54789 | 11751 ft | 310 kts | 327° |
| 2026-05-06 09:02 | 24.45053 | 67.53443 | 11374 ft | 308 kts | 327° |
| 2026-05-06 09:02 | 24.46810 | 67.52107 | 10999 ft | 307 kts | 327° |
| 2026-05-06 09:02 | 24.48534 | 67.50797 | 10629 ft | 305 kts | 327° |
| 2026-05-06 09:03 | 24.50273 | 67.49474 | 10268 ft | 303 kts | 326° |
| 2026-05-06 09:03 | 24.51977 | 67.48177 | 10110 ft | 294 kts | 326° |
| 2026-05-06 09:03 | 24.53629 | 67.46917 | 9987 ft | 284 kts | 327° |
| 2026-05-06 09:03 | 24.55228 | 67.45699 | 9862 ft | 275 kts | 327° |
| 2026-05-06 09:04 | 24.56797 | 67.44506 | 9549 ft | 274 kts | 326° |
| 2026-05-06 09:04 | 24.58413 | 67.43451 | 9207 ft | 268 kts | 341° |
| 2026-05-06 09:04 | 24.60220 | 67.43076 | 8924 ft | 262 kts | 354° |
| 2026-05-06 09:04 | 24.62029 | 67.42885 | 8612 ft | 261 kts | 354° |
| 2026-05-06 09:05 | 24.63812 | 67.42698 | 8317 ft | 260 kts | 353° |
| 2026-05-06 09:05 | 24.65608 | 67.42509 | 8007 ft | 259 kts | 354° |
| 2026-05-06 09:05 | 24.67400 | 67.42317 | 7688 ft | 260 kts | 353° |
| 2026-05-06 09:05 | 24.69187 | 67.42124 | 7466 ft | 255 kts | 353° |
| 2026-05-06 09:06 | 24.70911 | 67.41937 | 7244 ft | 242 kts | 353° |
| 2026-05-06 09:06 | 24.72605 | 67.41752 | 6674 ft | 246 kts | 352° |
| 2026-05-06 09:06 | 24.74305 | 67.41564 | 6430 ft | 242 kts | 352° |
| 2026-05-06 09:06 | 24.75939 | 67.41385 | 6364 ft | 229 kts | 351° |
| 2026-05-06 09:07 | 24.77445 | 67.41221 | 6201 ft | 213 kts | 352° |
| 2026-05-06 09:07 | 24.78898 | 67.41059 | 5790 ft | 207 kts | 349° |
| 2026-05-06 09:07 | 24.80304 | 67.40902 | 5411 ft | 202 kts | 351° |
| 2026-05-06 09:07 | 24.81714 | 67.40744 | 5013 ft | 204 kts | 351° |
| 2026-05-06 09:08 | 24.83133 | 67.40587 | 4658 ft | 206 kts | 349° |
| 2026-05-06 09:08 | 24.84552 | 67.40428 | 4341 ft | 204 kts | 351° |
| 2026-05-06 09:08 | 24.85977 | 67.40269 | 3936 ft | 205 kts | 350° |
| 2026-05-06 09:08 | 24.87414 | 67.40107 | 3500 ft | 209 kts | 351° |
| 2026-05-06 09:09 | 24.88814 | 67.39844 | 3159 ft | 207 kts | 341° |
| 2026-05-06 09:09 | 24.90179 | 67.39427 | 3011 ft | 204 kts | 341° |
| 2026-05-06 09:09 | 24.91568 | 67.38990 | 2991 ft | 209 kts | 342° |
| 2026-05-06 09:09 | 24.92956 | 67.38562 | 2970 ft | 205 kts | 341° |
| 2026-05-06 09:10 | 24.94163 | 67.37810 | 2966 ft | 198 kts | 309° |
| 2026-05-06 09:10 | 24.94884 | 67.36564 | 2970 ft | 191 kts | 281° |
| 2026-05-06 09:10 | 24.94927 | 67.35139 | 2977 ft | 186 kts | 261° |
| 2026-05-06 09:10 | 24.94766 | 67.33783 | 2930 ft | 177 kts | 259° |
| 2026-05-06 09:11 | 24.94585 | 67.32496 | 2701 ft | 160 kts | 258° |
| 2026-05-06 09:11 | 24.94361 | 67.31355 | 2499 ft | 147 kts | 255° |
| 2026-05-06 09:11 | 24.94107 | 67.30276 | 2344 ft | 145 kts | 253° |
| 2026-05-06 09:11 | 24.93840 | 67.29199 | 2147 ft | 146 kts | 255° |
| 2026-05-06 09:12 | 24.93574 | 67.28138 | 1972 ft | 141 kts | 253° |
| 2026-05-06 09:12 | 24.93314 | 67.27123 | 1797 ft | 132 kts | 253° |
| 2026-05-06 09:12 | 24.93067 | 67.26165 | 1621 ft | 132 kts | 253° |
| 2026-05-06 09:12 | 24.92811 | 67.25130 | 1432 ft | 140 kts | 253° |
| 2026-05-06 09:13 | 24.92559 | 67.24136 | 1306 ft | 136 kts | 253° |
| 2026-05-06 09:13 | 24.92304 | 67.23119 | 1108 ft | 136 kts | 252° |
| 2026-05-06 09:13 | 24.92054 | 67.22130 | 978 ft | 133 kts | 253° |
| 2026-05-06 09:13 | 24.91790 | 67.21120 | 740 ft | 146 kts | 253° |
| 2026-05-06 09:14 | 24.91550 | 67.20081 | 620 ft | 136 kts | 250° |
| 2026-05-06 09:14 | 24.91293 | 67.19116 | 462 ft | 133 kts | 249° |
| 2026-05-06 09:14 | 24.91035 | 67.18104 | 270 ft | 137 kts | 251° |
| 2026-05-06 09:14 | 24.90786 | 67.17099 | 112 ft | 131 kts | 248° |
| 2026-05-06 09:15 | 24.90569 | 67.16297 | 108 ft | 83 kts | 253° |
| 2026-05-06 09:15 | 24.90476 | 67.15929 | 110 ft | 21 kts | 256° |
| 2026-05-06 09:15 | 24.90451 | 67.15827 | 110 ft | 11 kts | 254° |
| 2026-05-06 09:15 | 24.90408 | 67.15766 | 109 ft | 10 kts | 201° |
| 2026-05-06 09:16 | 24.90335 | 67.15776 | 108 ft | 11 kts | 165° |
| 2026-05-06 09:16 | 24.90323 | 67.15780 | 108 ft | 0 kts | 166° |
| 2026-05-06 09:17 | 24.90305 | 67.15786 | 107 ft | 8 kts | 161° |
| 2026-05-06 09:17 | 24.90269 | 67.15815 | 107 ft | 6 kts | 120° |
| 2026-05-06 09:17 | 24.90268 | 67.15858 | 107 ft | 6 kts | 83° |
| 2026-05-06 09:18 | 24.90277 | 67.15906 | 107 ft | 7 kts | 75° |
| 2026-05-06 09:18 | 24.90292 | 67.15966 | 107 ft | 9 kts | 75° |
| 2026-05-06 09:18 | 24.90310 | 67.16037 | 107 ft | 10 kts | 75° |
| 2026-05-06 09:18 | 24.90329 | 67.16115 | 107 ft | 11 kts | 75° |
| 2026-05-06 09:19 | 24.90351 | 67.16201 | 107 ft | 12 kts | 75° |
| 2026-05-06 09:19 | 24.90374 | 67.16294 | 107 ft | 13 kts | 75° |
| 2026-05-06 09:19 | 24.90399 | 67.16394 | 107 ft | 15 kts | 75° |
| 2026-05-06 09:19 | 24.90429 | 67.16510 | 107 ft | 17 kts | 75° |
| 2026-05-06 09:20 | 24.90454 | 67.16614 | 107 ft | 7 kts | 76° |
| 2026-05-06 09:20 | 24.90435 | 67.16684 | 108 ft | 10 kts | 142° |
| 2026-05-06 09:20 | 24.90385 | 67.16718 | 108 ft | 6 kts | 126° |
| 2026-05-06 09:20 | 24.90381 | 67.16747 | 107 ft | 6 kts | 90° |
| 2026-05-06 09:21 | 24.90391 | 67.16806 | 108 ft | 9 kts | 76° |
| 2026-05-06 09:21 | 24.90394 | 67.16867 | 109 ft | 4 kts | 122° |
| 2026-05-06 09:21 | 24.90371 | 67.16886 | 109 ft | 2 kts | 149° |
| 2026-05-06 09:21 | 24.90358 | 67.16891 | 108 ft | 4 kts | 162° |
| 2026-05-06 09:22 | 24.90330 | 67.16900 | 108 ft | 4 kts | 165° |
| 2026-05-06 09:22 | 24.90325 | 67.16902 | 107 ft | 0 kts | 164° |